Butler, Oklahoma
Current Conditions -  °F | °C
As of 3:15 AM on Monday 20 Oct 2014 (Local Time) from KCLK Reporting Station
Scattered Clouds Scattered Clouds  
Wind Chill: 55°   Ceiling: Unl
Heat Index: 55°   Visibility: 10mi
Dew Point: 54°   Wind: 5mph
Humidity: 94%   Direction: 140°SE
Pressure: 30.05"   Gusts: NA
Location:  35.64°N, 99.19°W
Report Text: KCLK 200815Z AUTO 14004KT 10SM SCT065 SCT080 13/12 A3005 RMK AO2
Loading
Personal Weather Stations






























Interactive Weather Map
Tropical Storm Tracking
New forecast layout! Learn more

10-Day Weather Forecast

Advertisements
Track Severe Weather on mobile